Chichinales, Argentina
Current Conditions -  °F | °C
As of 6:00 PM on Saturday 22 Nov 2014 (Local Time) from SAZN Reporting Station
Clear Clear  
Wind Chill: 81°   Ceiling: Unl
Heat Index: 81°   Visibility: 6mi
Dew Point: 41°   Wind: 3mph
Humidity: 24%   Direction: 90°E
Pressure: 29.74"   Gusts: NA
Location:  39.01°S, 66.9°W
Report Text: SAZN 222100Z 09003KT CAVOK 27/05 Q1007
Loading
Personal Weather Stations






























Interactive Weather Map New forecast layout! Learn more

10-Day Weather Forecast

Advertisements
Track Severe Weather on mobile